sensor_id;sensor_type;location;lat;lon;timestamp;P1;durP1;ratioP1;P2;durP2;ratioP2
29688;SDS011;16600;47.444;8.334;2023-11-18T00:02:20;4.00;;;2.20;;
29688;SDS011;16600;47.444;8.334;2023-11-18T00:04:50;2.65;;;2.25;;
29688;SDS011;16600;47.444;8.334;2023-11-18T00:07:17;3.03;;;1.80;;
29688;SDS011;16600;47.444;8.334;2023-11-18T00:09:43;5.20;;;2.33;;
29688;SDS011;16600;47.444;8.334;2023-11-18T00:12:13;7.10;;;2.72;;
29688;SDS011;16600;47.444;8.334;2023-11-18T00:14:39;6.38;;;3.17;;
29688;SDS011;16600;47.444;8.334;2023-11-18T00:17:06;3.65;;;2.30;;
29688;SDS011;16600;47.444;8.334;2023-11-18T00:19:38;5.57;;;3.38;;
29688;SDS011;16600;47.444;8.334;2023-11-18T00:22:05;5.15;;;3.20;;
29688;SDS011;16600;47.444;8.334;2023-11-18T00:24:31;4.45;;;2.47;;
29688;SDS011;16600;47.444;8.334;2023-11-18T00:27:00;4.13;;;2.70;;
29688;SDS011;16600;47.444;8.334;2023-11-18T00:29:34;5.47;;;2.20;;
29688;SDS011;16600;47.444;8.334;2023-11-18T00:32:01;8.02;;;4.00;;
29688;SDS011;16600;47.444;8.334;2023-11-18T00:34:28;12.55;;;2.72;;
29688;SDS011;16600;47.444;8.334;2023-11-18T00:36:55;3.58;;;2.40;;
29688;SDS011;16600;47.444;8.334;2023-11-18T00:39:24;4.57;;;2.72;;
29688;SDS011;16600;47.444;8.334;2023-11-18T00:41:50;3.13;;;2.83;;
29688;SDS011;16600;47.444;8.334;2023-11-18T00:49:09;9.80;;;2.47;;
29688;SDS011;16600;47.444;8.334;2023-11-18T00:51:37;3.08;;;2.45;;
29688;SDS011;16600;47.444;8.334;2023-11-18T00:54:04;7.53;;;2.50;;
29688;SDS011;16600;47.444;8.334;2023-11-18T00:56:33;4.72;;;2.50;;
29688;SDS011;16600;47.444;8.334;2023-11-18T00:58:59;4.30;;;2.80;;
29688;SDS011;16600;47.444;8.334;2023-11-18T01:01:31;4.82;;;2.63;;
29688;SDS011;16600;47.444;8.334;2023-11-18T01:03:57;3.80;;;2.38;;
29688;SDS011;16600;47.444;8.334;2023-11-18T01:06:27;3.67;;;2.60;;
29688;SDS011;16600;47.444;8.334;2023-11-18T01:08:53;7.05;;;2.58;;
29688;SDS011;16600;47.444;8.334;2023-11-18T01:11:19;4.88;;;2.78;;
29688;SDS011;16600;47.444;8.334;2023-11-18T01:13:46;5.63;;;2.30;;
29688;SDS011;16600;47.444;8.334;2023-11-18T01:16:12;3.92;;;2.33;;
29688;SDS011;16600;47.444;8.334;2023-11-18T01:18:40;2.70;;;2.17;;
29688;SDS011;16600;47.444;8.334;2023-11-18T01:21:07;3.40;;;2.17;;
29688;SDS011;16600;47.444;8.334;2023-11-18T01:23:36;3.35;;;2.28;;
29688;SDS011;16600;47.444;8.334;2023-11-18T01:28:33;3.50;;;2.72;;
29688;SDS011;16600;47.444;8.334;2023-11-18T01:31:03;4.10;;;2.08;;
29688;SDS011;16600;47.444;8.334;2023-11-18T01:33:29;2.13;;;1.92;;
29688;SDS011;16600;47.444;8.334;2023-11-18T01:35:56;4.85;;;2.53;;
29688;SDS011;16600;47.444;8.334;2023-11-18T01:38:22;7.18;;;2.97;;
29688;SDS011;16600;47.444;8.334;2023-11-18T01:40:51;3.75;;;2.28;;
29688;SDS011;16600;47.444;8.334;2023-11-18T01:43:19;5.03;;;3.05;;
29688;SDS011;16600;47.444;8.334;2023-11-18T01:45:51;6.03;;;3.00;;
29688;SDS011;16600;47.444;8.334;2023-11-18T01:48:21;3.58;;;3.17;;
29688;SDS011;16600;47.444;8.334;2023-11-18T01:50:48;6.32;;;2.92;;
29688;SDS011;16600;47.444;8.334;2023-11-18T01:53:20;7.38;;;3.25;;
29688;SDS011;16600;47.444;8.334;2023-11-18T01:55:47;6.47;;;2.88;;
29688;SDS011;16600;47.444;8.334;2023-11-18T01:58:14;5.10;;;3.50;;
29688;SDS011;16600;47.444;8.334;2023-11-18T02:00:45;4.93;;;3.00;;
29688;SDS011;16600;47.444;8.334;2023-11-18T02:03:14;8.93;;;3.92;;
29688;SDS011;16600;47.444;8.334;2023-11-18T02:05:39;6.47;;;4.53;;
29688;SDS011;16600;47.444;8.334;2023-11-18T02:08:07;8.57;;;3.17;;
29688;SDS011;16600;47.444;8.334;2023-11-18T02:10:34;3.58;;;2.30;;
29688;SDS011;16600;47.444;8.334;2023-11-18T02:13:12;4.30;;;3.28;;
29688;SDS011;16600;47.444;8.334;2023-11-18T02:15:45;7.82;;;2.95;;
29688;SDS011;16600;47.444;8.334;2023-11-18T02:18:12;5.50;;;2.80;;
29688;SDS011;16600;47.444;8.334;2023-11-18T02:20:38;3.28;;;2.33;;
29688;SDS011;16600;47.444;8.334;2023-11-18T02:23:05;2.42;;;2.20;;
29688;SDS011;16600;47.444;8.334;2023-11-18T02:25:33;3.85;;;2.70;;
29688;SDS011;16600;47.444;8.334;2023-11-18T02:28:00;10.32;;;3.22;;
29688;SDS011;16600;47.444;8.334;2023-11-18T02:30:26;4.28;;;3.00;;
29688;SDS011;16600;47.444;8.334;2023-11-18T02:33:00;3.95;;;3.53;;
29688;SDS011;16600;47.444;8.334;2023-11-18T02:36:05;517.40;;;25.08;;
29688;SDS011;16600;47.444;8.334;2023-11-18T02:38:30;407.65;;;21.83;;
29688;SDS011;16600;47.444;8.334;2023-11-18T02:41:02;6.65;;;4.10;;
29688;SDS011;16600;47.444;8.334;2023-11-18T02:43:33;7.50;;;4.22;;
29688;SDS011;16600;47.444;8.334;2023-11-18T02:46:03;7.72;;;5.22;;
29688;SDS011;16600;47.444;8.334;2023-11-18T02:48:32;5.15;;;3.65;;
29688;SDS011;16600;47.444;8.334;2023-11-18T02:53:24;8.30;;;5.38;;
29688;SDS011;16600;47.444;8.334;2023-11-18T02:55:51;12.93;;;3.35;;
29688;SDS011;16600;47.444;8.334;2023-11-18T02:58:20;4.80;;;2.75;;
29688;SDS011;16600;47.444;8.334;2023-11-18T03:00:52;9.50;;;2.88;;
29688;SDS011;16600;47.444;8.334;2023-11-18T03:03:28;2.88;;;2.55;;
29688;SDS011;16600;47.444;8.334;2023-11-18T03:05:54;3.45;;;2.88;;
29688;SDS011;16600;47.444;8.334;2023-11-18T03:08:23;2.95;;;2.75;;
29688;SDS011;16600;47.444;8.334;2023-11-18T03:10:50;14.98;;;5.40;;
29688;SDS011;16600;47.444;8.334;2023-11-18T03:13:18;4.93;;;3.58;;
29688;SDS011;16600;47.444;8.334;2023-11-18T03:15:44;4.43;;;3.22;;
29688;SDS011;16600;47.444;8.334;2023-11-18T03:18:14;6.25;;;3.35;;
29688;SDS011;16600;47.444;8.334;2023-11-18T03:20:46;4.03;;;3.65;;
29688;SDS011;16600;47.444;8.334;2023-11-18T03:23:13;11.05;;;5.15;;
29688;SDS011;16600;47.444;8.334;2023-11-18T03:25:39;10.07;;;4.82;;
29688;SDS011;16600;47.444;8.334;2023-11-18T03:28:05;18.13;;;4.93;;
29688;SDS011;16600;47.444;8.334;2023-11-18T03:30:32;397.13;;;18.75;;
29688;SDS011;16600;47.444;8.334;2023-11-18T03:33:00;378.75;;;22.35;;
29688;SDS011;16600;47.444;8.334;2023-11-18T03:35:27;191.75;;;14.85;;
29688;SDS011;16600;47.444;8.334;2023-11-18T03:37:53;105.25;;;9.57;;
29688;SDS011;16600;47.444;8.334;2023-11-18T03:40:20;61.47;;;13.25;;
29688;SDS011;16600;47.444;8.334;2023-11-18T03:42:47;7.90;;;5.65;;
29688;SDS011;16600;47.444;8.334;2023-11-18T03:45:17;7.13;;;4.93;;
29688;SDS011;16600;47.444;8.334;2023-11-18T03:47:43;9.88;;;6.45;;
29688;SDS011;16600;47.444;8.334;2023-11-18T03:50:13;10.80;;;6.03;;
29688;SDS011;16600;47.444;8.334;2023-11-18T03:52:39;14.35;;;7.68;;
29688;SDS011;16600;47.444;8.334;2023-11-18T03:55:05;108.32;;;8.70;;
29688;SDS011;16600;47.444;8.334;2023-11-18T03:57:32;281.73;;;14.32;;
29688;SDS011;16600;47.444;8.334;2023-11-18T03:59:58;6.65;;;5.60;;
29688;SDS011;16600;47.444;8.334;2023-11-18T04:02:35;21.30;;;5.97;;
29688;SDS011;16600;47.444;8.334;2023-11-18T04:05:02;5.97;;;5.13;;
29688;SDS011;16600;47.444;8.334;2023-11-18T04:07:29;5.95;;;5.32;;
29688;SDS011;16600;47.444;8.334;2023-11-18T04:09:56;4.38;;;3.97;;
29688;SDS011;16600;47.444;8.334;2023-11-18T04:12:22;13.30;;;4.55;;
29688;SDS011;16600;47.444;8.334;2023-11-18T04:14:49;6.35;;;4.53;;
29688;SDS011;16600;47.444;8.334;2023-11-18T04:17:16;4.70;;;4.22;;
29688;SDS011;16600;47.444;8.334;2023-11-18T04:19:47;6.63;;;5.57;;
29688;SDS011;16600;47.444;8.334;2023-11-18T04:22:13;35.15;;;8.10;;
29688;SDS011;16600;47.444;8.334;2023-11-18T04:24:39;103.82;;;12.77;;
29688;SDS011;16600;47.444;8.334;2023-11-18T04:27:06;388.90;;;23.15;;
29688;SDS011;16600;47.444;8.334;2023-11-18T04:29:32;10.30;;;6.50;;
29688;SDS011;16600;47.444;8.334;2023-11-18T04:31:58;12.90;;;6.68;;
29688;SDS011;16600;47.444;8.334;2023-11-18T04:34:27;391.83;;;21.15;;
29688;SDS011;16600;47.444;8.334;2023-11-18T04:36:54;248.50;;;17.55;;
29688;SDS011;16600;47.444;8.334;2023-11-18T04:39:20;548.92;;;28.75;;
29688;SDS011;16600;47.444;8.334;2023-11-18T04:41:48;360.45;;;24.08;;
29688;SDS011;16600;47.444;8.334;2023-11-18T04:44:16;525.92;;;30.73;;
29688;SDS011;16600;47.444;8.334;2023-11-18T04:46:43;329.33;;;23.52;;
29688;SDS011;16600;47.444;8.334;2023-11-18T04:49:10;381.30;;;31.08;;
29688;SDS011;16600;47.444;8.334;2023-11-18T04:51:36;123.70;;;13.15;;
29688;SDS011;16600;47.444;8.334;2023-11-18T04:54:03;638.60;;;35.85;;
29688;SDS011;16600;47.444;8.334;2023-11-18T04:56:29;170.43;;;17.13;;
29688;SDS011;16600;47.444;8.334;2023-11-18T04:58:56;389.40;;;22.25;;
29688;SDS011;16600;47.444;8.334;2023-11-18T05:03:04;806.80;;;46.53;;
29688;SDS011;16600;47.444;8.334;2023-11-18T05:05:38;832.20;;;52.45;;
29688;SDS011;16600;47.444;8.334;2023-11-18T05:08:05;494.38;;;25.10;;
29688;SDS011;16600;47.444;8.334;2023-11-18T05:10:34;432.30;;;31.30;;
29688;SDS011;16600;47.444;8.334;2023-11-18T05:13:03;292.00;;;19.58;;
29688;SDS011;16600;47.444;8.334;2023-11-18T05:15:30;134.38;;;14.00;;
29688;SDS011;16600;47.444;8.334;2023-11-18T05:17:57;125.07;;;13.85;;
29688;SDS011;16600;47.444;8.334;2023-11-18T05:20:23;174.10;;;15.93;;
29688;SDS011;16600;47.444;8.334;2023-11-18T05:22:52;308.40;;;21.13;;
29688;SDS011;16600;47.444;8.334;2023-11-18T05:25:21;120.40;;;13.95;;
29688;SDS011;16600;47.444;8.334;2023-11-18T05:27:47;236.23;;;18.40;;
29688;SDS011;16600;47.444;8.334;2023-11-18T05:30:14;205.68;;;14.68;;
29688;SDS011;16600;47.444;8.334;2023-11-18T05:32:43;252.00;;;15.23;;
29688;SDS011;16600;47.444;8.334;2023-11-18T05:35:12;385.65;;;22.98;;
29688;SDS011;16600;47.444;8.334;2023-11-18T05:37:38;450.95;;;25.13;;
29688;SDS011;16600;47.444;8.334;2023-11-18T05:40:06;169.20;;;15.13;;
29688;SDS011;16600;47.444;8.334;2023-11-18T05:42:33;219.90;;;18.63;;
29688;SDS011;16600;47.444;8.334;2023-11-18T05:45:05;193.18;;;17.42;;
29688;SDS011;16600;47.444;8.334;2023-11-18T05:47:33;70.82;;;12.48;;
29688;SDS011;16600;47.444;8.334;2023-11-18T05:50:00;96.47;;;11.40;;
29688;SDS011;16600;47.444;8.334;2023-11-18T05:52:27;102.15;;;12.13;;
29688;SDS011;16600;47.444;8.334;2023-11-18T05:54:53;87.28;;;12.52;;
29688;SDS011;16600;47.444;8.334;2023-11-18T05:57:19;92.63;;;13.30;;
29688;SDS011;16600;47.444;8.334;2023-11-18T05:59:48;258.65;;;19.63;;
29688;SDS011;16600;47.444;8.334;2023-11-18T06:02:17;143.82;;;12.07;;
29688;SDS011;16600;47.444;8.334;2023-11-18T06:04:46;166.80;;;14.68;;
29688;SDS011;16600;47.444;8.334;2023-11-18T06:07:15;70.85;;;9.60;;
29688;SDS011;16600;47.444;8.334;2023-11-18T06:12:08;225.07;;;16.42;;
29688;SDS011;16600;47.444;8.334;2023-11-18T06:14:38;280.85;;;22.95;;
29688;SDS011;16600;47.444;8.334;2023-11-18T06:17:04;77.93;;;9.82;;
29688;SDS011;16600;47.444;8.334;2023-11-18T06:19:35;242.38;;;23.33;;
29688;SDS011;16600;47.444;8.334;2023-11-18T06:22:05;168.35;;;14.00;;
29688;SDS011;16600;47.444;8.334;2023-11-18T06:24:37;239.55;;;16.20;;
29688;SDS011;16600;47.444;8.334;2023-11-18T06:27:05;170.48;;;13.30;;
29688;SDS011;16600;47.444;8.334;2023-11-18T06:29:37;173.25;;;18.33;;
29688;SDS011;16600;47.444;8.334;2023-11-18T06:32:09;360.20;;;23.35;;
29688;SDS011;16600;47.444;8.334;2023-11-18T06:34:35;257.55;;;16.90;;
29688;SDS011;16600;47.444;8.334;2023-11-18T06:37:04;396.80;;;27.42;;
29688;SDS011;16600;47.444;8.334;2023-11-18T06:39:31;251.07;;;16.10;;
29688;SDS011;16600;47.444;8.334;2023-11-18T06:42:00;111.03;;;10.60;;
29688;SDS011;16600;47.444;8.334;2023-11-18T06:44:28;105.85;;;9.35;;
29688;SDS011;16600;47.444;8.334;2023-11-18T06:46:55;60.20;;;10.50;;
29688;SDS011;16600;47.444;8.334;2023-11-18T06:49:21;86.18;;;12.88;;
29688;SDS011;16600;47.444;8.334;2023-11-18T06:54:13;239.70;;;14.73;;
29688;SDS011;16600;47.444;8.334;2023-11-18T06:56:40;79.75;;;9.75;;
29688;SDS011;16600;47.444;8.334;2023-11-18T06:59:10;137.00;;;12.63;;
29688;SDS011;16600;47.444;8.334;2023-11-18T07:01:38;321.75;;;19.30;;
29688;SDS011;16600;47.444;8.334;2023-11-18T07:04:06;284.40;;;24.23;;
29688;SDS011;16600;47.444;8.334;2023-11-18T07:06:36;86.47;;;13.20;;
29688;SDS011;16600;47.444;8.334;2023-11-18T07:09:06;80.95;;;11.48;;
29688;SDS011;16600;47.444;8.334;2023-11-18T07:11:39;44.28;;;8.90;;
29688;SDS011;16600;47.444;8.334;2023-11-18T07:14:06;152.15;;;11.52;;
29688;SDS011;16600;47.444;8.334;2023-11-18T07:16:36;208.15;;;12.93;;
29688;SDS011;16600;47.444;8.334;2023-11-18T07:19:06;40.47;;;7.30;;
29688;SDS011;16600;47.444;8.334;2023-11-18T07:21:33;68.65;;;9.18;;
29688;SDS011;16600;47.444;8.334;2023-11-18T07:23:59;186.55;;;13.30;;
29688;SDS011;16600;47.444;8.334;2023-11-18T07:26:25;319.23;;;20.52;;
29688;SDS011;16600;47.444;8.334;2023-11-18T07:28:51;140.35;;;10.95;;
29688;SDS011;16600;47.444;8.334;2023-11-18T07:31:18;232.38;;;16.13;;
29688;SDS011;16600;47.444;8.334;2023-11-18T07:33:45;265.02;;;20.70;;
29688;SDS011;16600;47.444;8.334;2023-11-18T07:36:15;208.30;;;15.75;;
29688;SDS011;16600;47.444;8.334;2023-11-18T07:38:44;51.67;;;7.45;;
29688;SDS011;16600;47.444;8.334;2023-11-18T07:41:11;202.80;;;13.57;;
29688;SDS011;16600;47.444;8.334;2023-11-18T07:43:51;58.83;;;9.23;;
29688;SDS011;16600;47.444;8.334;2023-11-18T07:46:20;200.90;;;15.93;;
29688;SDS011;16600;47.444;8.334;2023-11-18T07:48:50;46.00;;;7.93;;
29688;SDS011;16600;47.444;8.334;2023-11-18T07:51:19;30.75;;;7.57;;
29688;SDS011;16600;47.444;8.334;2023-11-18T07:53:49;30.30;;;7.22;;
29688;SDS011;16600;47.444;8.334;2023-11-18T07:56:24;48.60;;;8.93;;
29688;SDS011;16600;47.444;8.334;2023-11-18T08:01:17;65.97;;;8.98;;
29688;SDS011;16600;47.444;8.334;2023-11-18T08:03:43;177.50;;;10.88;;
29688;SDS011;16600;47.444;8.334;2023-11-18T08:06:13;316.38;;;16.90;;
29688;SDS011;16600;47.444;8.334;2023-11-18T08:08:39;134.93;;;10.57;;
29688;SDS011;16600;47.444;8.334;2023-11-18T08:11:06;315.58;;;17.02;;
29688;SDS011;16600;47.444;8.334;2023-11-18T08:13:32;175.00;;;11.73;;
29688;SDS011;16600;47.444;8.334;2023-11-18T08:16:02;350.60;;;25.73;;
29688;SDS011;16600;47.444;8.334;2023-11-18T08:18:28;202.10;;;13.85;;
29688;SDS011;16600;47.444;8.334;2023-11-18T08:20:56;68.68;;;9.13;;
29688;SDS011;16600;47.444;8.334;2023-11-18T08:23:23;203.05;;;12.77;;
29688;SDS011;16600;47.444;8.334;2023-11-18T08:25:49;87.40;;;8.27;;
29688;SDS011;16600;47.444;8.334;2023-11-18T08:28:16;21.92;;;6.65;;
29688;SDS011;16600;47.444;8.334;2023-11-18T08:30:42;88.00;;;8.10;;
29688;SDS011;16600;47.444;8.334;2023-11-18T08:33:12;61.08;;;7.28;;
29688;SDS011;16600;47.444;8.334;2023-11-18T08:35:38;105.35;;;8.88;;
29688;SDS011;16600;47.444;8.334;2023-11-18T08:38:05;102.22;;;11.50;;
29688;SDS011;16600;47.444;8.334;2023-11-18T08:40:33;12.32;;;4.80;;
29688;SDS011;16600;47.444;8.334;2023-11-18T08:43:00;10.48;;;5.13;;
29688;SDS011;16600;47.444;8.334;2023-11-18T08:45:27;101.85;;;9.57;;
29688;SDS011;16600;47.444;8.334;2023-11-18T08:47:58;15.13;;;5.72;;
29688;SDS011;16600;47.444;8.334;2023-11-18T08:50:25;33.92;;;5.75;;
29688;SDS011;16600;47.444;8.334;2023-11-18T08:52:52;8.00;;;4.75;;
29688;SDS011;16600;47.444;8.334;2023-11-18T08:55:23;20.05;;;5.10;;
29688;SDS011;16600;47.444;8.334;2023-11-18T08:58:07;20.30;;;5.00;;
29688;SDS011;16600;47.444;8.334;2023-11-18T09:00:46;4.53;;;4.13;;
29688;SDS011;16600;47.444;8.334;2023-11-18T09:03:12;7.15;;;4.57;;
29688;SDS011;16600;47.444;8.334;2023-11-18T09:05:51;18.08;;;6.10;;
29688;SDS011;16600;47.444;8.334;2023-11-18T09:08:29;32.13;;;6.68;;
29688;SDS011;16600;47.444;8.334;2023-11-18T09:11:03;6.68;;;5.47;;
29688;SDS011;16600;47.444;8.334;2023-11-18T09:13:33;8.73;;;5.28;;
29688;SDS011;16600;47.444;8.334;2023-11-18T09:16:06;8.32;;;5.15;;
29688;SDS011;16600;47.444;8.334;2023-11-18T09:18:37;6.57;;;5.40;;
29688;SDS011;16600;47.444;8.334;2023-11-18T09:21:13;11.20;;;6.75;;
29688;SDS011;16600;47.444;8.334;2023-11-18T09:23:45;6.43;;;5.82;;
29688;SDS011;16600;47.444;8.334;2023-11-18T09:26:13;6.57;;;5.88;;
29688;SDS011;16600;47.444;8.334;2023-11-18T09:28:41;6.10;;;5.50;;
29688;SDS011;16600;47.444;8.334;2023-11-18T09:31:07;7.70;;;5.35;;
29688;SDS011;16600;47.444;8.334;2023-11-18T09:33:38;5.65;;;5.15;;
29688;SDS011;16600;47.444;8.334;2023-11-18T09:36:06;7.50;;;5.60;;
29688;SDS011;16600;47.444;8.334;2023-11-18T09:38:33;8.73;;;5.68;;
29688;SDS011;16600;47.444;8.334;2023-11-18T09:41:02;5.45;;;4.95;;
29688;SDS011;16600;47.444;8.334;2023-11-18T09:43:29;5.40;;;4.90;;
29688;SDS011;16600;47.444;8.334;2023-11-18T09:46:03;8.32;;;5.07;;
29688;SDS011;16600;47.444;8.334;2023-11-18T09:48:29;6.20;;;5.60;;
29688;SDS011;16600;47.444;8.334;2023-11-18T09:51:04;4.80;;;4.28;;
29688;SDS011;16600;47.444;8.334;2023-11-18T09:53:32;5.03;;;4.47;;
29688;SDS011;16600;47.444;8.334;2023-11-18T09:56:03;6.07;;;4.35;;
29688;SDS011;16600;47.444;8.334;2023-11-18T09:58:43;4.88;;;4.32;;
29688;SDS011;16600;47.444;8.334;2023-11-18T10:01:15;5.28;;;4.38;;
29688;SDS011;16600;47.444;8.334;2023-11-18T10:03:44;4.10;;;3.70;;
29688;SDS011;16600;47.444;8.334;2023-11-18T10:06:12;3.95;;;3.60;;
29688;SDS011;16600;47.444;8.334;2023-11-18T10:08:43;4.63;;;3.35;;
29688;SDS011;16600;47.444;8.334;2023-11-18T10:11:12;5.22;;;3.63;;
29688;SDS011;16600;47.444;8.334;2023-11-18T10:13:39;3.38;;;3.08;;
29688;SDS011;16600;47.444;8.334;2023-11-18T10:16:07;3.42;;;3.13;;
29688;SDS011;16600;47.444;8.334;2023-11-18T10:18:33;3.65;;;3.35;;
29688;SDS011;16600;47.444;8.334;2023-11-18T10:21:02;3.70;;;3.40;;
29688;SDS011;16600;47.444;8.334;2023-11-18T10:23:36;3.95;;;3.55;;
29688;SDS011;16600;47.444;8.334;2023-11-18T10:26:03;3.00;;;2.80;;
29688;SDS011;16600;47.444;8.334;2023-11-18T10:28:31;4.95;;;4.05;;
29688;SDS011;16600;47.444;8.334;2023-11-18T10:31:07;4.40;;;4.00;;
29688;SDS011;16600;47.444;8.334;2023-11-18T10:33:40;4.00;;;3.70;;
29688;SDS011;16600;47.444;8.334;2023-11-18T10:36:21;4.95;;;4.43;;
29688;SDS011;16600;47.444;8.334;2023-11-18T10:38:49;4.15;;;3.83;;
29688;SDS011;16600;47.444;8.334;2023-11-18T10:41:20;3.97;;;3.65;;
29688;SDS011;16600;47.444;8.334;2023-11-18T10:43:46;3.92;;;3.63;;
29688;SDS011;16600;47.444;8.334;2023-11-18T10:46:14;4.03;;;3.63;;
29688;SDS011;16600;47.444;8.334;2023-11-18T10:48:40;4.57;;;4.18;;
29688;SDS011;16600;47.444;8.334;2023-11-18T10:51:14;6.93;;;4.72;;
29688;SDS011;16600;47.444;8.334;2023-11-18T10:53:48;8.80;;;5.00;;
29688;SDS011;16600;47.444;8.334;2023-11-18T10:56:29;5.47;;;4.93;;
29688;SDS011;16600;47.444;8.334;2023-11-18T10:58:56;6.60;;;4.93;;
29688;SDS011;16600;47.444;8.334;2023-11-18T11:03:03;4.83;;;4.40;;
29688;SDS011;16600;47.444;8.334;2023-11-18T11:05:32;5.55;;;4.45;;
29688;SDS011;16600;47.444;8.334;2023-11-18T11:08:04;6.90;;;4.75;;
29688;SDS011;16600;47.444;8.334;2023-11-18T11:10:36;7.25;;;4.82;;
29688;SDS011;16600;47.444;8.334;2023-11-18T11:13:07;6.90;;;4.80;;
29688;SDS011;16600;47.444;8.334;2023-11-18T11:15:40;5.30;;;4.78;;
29688;SDS011;16600;47.444;8.334;2023-11-18T11:18:11;6.72;;;5.38;;
29688;SDS011;16600;47.444;8.334;2023-11-18T11:23:21;6.32;;;5.53;;
29688;SDS011;16600;47.444;8.334;2023-11-18T11:26:13;7.22;;;5.53;;
29688;SDS011;16600;47.444;8.334;2023-11-18T11:31:39;6.28;;;5.68;;
29688;SDS011;16600;47.444;8.334;2023-11-18T11:34:18;9.60;;;6.88;;
29688;SDS011;16600;47.444;8.334;2023-11-18T11:36:50;5.93;;;5.43;;
29688;SDS011;16600;47.444;8.334;2023-11-18T11:39:18;5.60;;;5.03;;
29688;SDS011;16600;47.444;8.334;2023-11-18T11:41:53;6.68;;;5.97;;
29688;SDS011;16600;47.444;8.334;2023-11-18T11:44:24;5.40;;;4.78;;
29688;SDS011;16600;47.444;8.334;2023-11-18T11:47:06;6.20;;;5.60;;
29688;SDS011;16600;47.444;8.334;2023-11-18T11:49:38;8.00;;;5.65;;
29688;SDS011;16600;47.444;8.334;2023-11-18T11:52:11;10.23;;;6.18;;
29688;SDS011;16600;47.444;8.334;2023-11-18T11:54:52;6.15;;;5.60;;
29688;SDS011;16600;47.444;8.334;2023-11-18T11:57:24;6.45;;;5.68;;
29688;SDS011;16600;47.444;8.334;2023-11-18T11:59:54;7.82;;;5.85;;
29688;SDS011;16600;47.444;8.334;2023-11-18T12:02:24;9.82;;;6.43;;
29688;SDS011;16600;47.444;8.334;2023-11-18T12:04:53;6.30;;;5.53;;
29688;SDS011;16600;47.444;8.334;2023-11-18T12:07:22;8.65;;;5.95;;
29688;SDS011;16600;47.444;8.334;2023-11-18T12:09:58;6.97;;;6.28;;
29688;SDS011;16600;47.444;8.334;2023-11-18T12:12:25;7.57;;;5.72;;
29688;SDS011;16600;47.444;8.334;2023-11-18T12:14:56;11.80;;;5.57;;
29688;SDS011;16600;47.444;8.334;2023-11-18T12:17:26;5.85;;;4.97;;
29688;SDS011;16600;47.444;8.334;2023-11-18T12:20:00;6.97;;;5.38;;
29688;SDS011;16600;47.444;8.334;2023-11-18T12:23:02;5.93;;;5.32;;
29688;SDS011;16600;47.444;8.334;2023-11-18T12:27:48;6.03;;;4.85;;
29688;SDS011;16600;47.444;8.334;2023-11-18T12:32:58;6.55;;;5.85;;
29688;SDS011;16600;47.444;8.334;2023-11-18T12:35:26;12.98;;;6.72;;
29688;SDS011;16600;47.444;8.334;2023-11-18T12:38:08;9.80;;;6.05;;
29688;SDS011;16600;47.444;8.334;2023-11-18T12:40:50;5.57;;;5.00;;
29688;SDS011;16600;47.444;8.334;2023-11-18T12:43:17;9.55;;;5.00;;
29688;SDS011;16600;47.444;8.334;2023-11-18T12:48:20;5.95;;;5.35;;
29688;SDS011;16600;47.444;8.334;2023-11-18T12:50:55;15.63;;;5.70;;
29688;SDS011;16600;47.444;8.334;2023-11-18T12:53:22;4.97;;;4.55;;
29688;SDS011;16600;47.444;8.334;2023-11-18T12:55:50;10.40;;;4.43;;
29688;SDS011;16600;47.444;8.334;2023-11-18T12:58:17;6.03;;;5.13;;
29688;SDS011;16600;47.444;8.334;2023-11-18T13:00:45;5.38;;;4.88;;
29688;SDS011;16600;47.444;8.334;2023-11-18T13:03:12;6.20;;;5.60;;
29688;SDS011;16600;47.444;8.334;2023-11-18T13:05:41;6.65;;;5.72;;
29688;SDS011;16600;47.444;8.334;2023-11-18T13:08:10;6.65;;;5.65;;
29688;SDS011;16600;47.444;8.334;2023-11-18T13:10:37;7.47;;;4.80;;
29688;SDS011;16600;47.444;8.334;2023-11-18T13:13:06;6.80;;;4.97;;
29688;SDS011;16600;47.444;8.334;2023-11-18T13:15:34;7.25;;;5.57;;
29688;SDS011;16600;47.444;8.334;2023-11-18T13:18:03;8.10;;;5.60;;
29688;SDS011;16600;47.444;8.334;2023-11-18T13:20:32;5.93;;;5.18;;
29688;SDS011;16600;47.444;8.334;2023-11-18T13:23:04;5.88;;;4.60;;
29688;SDS011;16600;47.444;8.334;2023-11-18T13:25:36;6.75;;;4.97;;
29688;SDS011;16600;47.444;8.334;2023-11-18T13:28:05;7.47;;;4.65;;
29688;SDS011;16600;47.444;8.334;2023-11-18T13:30:36;5.28;;;4.78;;
29688;SDS011;16600;47.444;8.334;2023-11-18T13:33:04;7.43;;;4.60;;
29688;SDS011;16600;47.444;8.334;2023-11-18T13:35:30;5.07;;;4.57;;
29688;SDS011;16600;47.444;8.334;2023-11-18T13:37:59;5.60;;;5.00;;
29688;SDS011;16600;47.444;8.334;2023-11-18T13:40:26;6.18;;;4.80;;
29688;SDS011;16600;47.444;8.334;2023-11-18T13:43:02;4.60;;;3.95;;
29688;SDS011;16600;47.444;8.334;2023-11-18T13:45:37;6.97;;;4.50;;
29688;SDS011;16600;47.444;8.334;2023-11-18T13:48:04;6.40;;;4.55;;
29688;SDS011;16600;47.444;8.334;2023-11-18T13:50:40;5.43;;;4.38;;
29688;SDS011;16600;47.444;8.334;2023-11-18T13:53:06;5.25;;;4.70;;
29688;SDS011;16600;47.444;8.334;2023-11-18T13:55:33;11.68;;;5.45;;
29688;SDS011;16600;47.444;8.334;2023-11-18T13:58:05;5.20;;;4.72;;
29688;SDS011;16600;47.444;8.334;2023-11-18T14:00:37;4.55;;;4.10;;
29688;SDS011;16600;47.444;8.334;2023-11-18T14:03:04;13.88;;;4.95;;
29688;SDS011;16600;47.444;8.334;2023-11-18T14:05:33;10.45;;;5.35;;
29688;SDS011;16600;47.444;8.334;2023-11-18T14:07:59;7.60;;;5.10;;
29688;SDS011;16600;47.444;8.334;2023-11-18T14:10:25;9.73;;;5.88;;
29688;SDS011;16600;47.444;8.334;2023-11-18T14:13:01;8.10;;;4.82;;
29688;SDS011;16600;47.444;8.334;2023-11-18T14:15:28;10.10;;;5.20;;
29688;SDS011;16600;47.444;8.334;2023-11-18T14:18:04;6.85;;;5.05;;
29688;SDS011;16600;47.444;8.334;2023-11-18T14:20:33;10.00;;;4.25;;
29688;SDS011;16600;47.444;8.334;2023-11-18T14:23:01;8.77;;;4.70;;
29688;SDS011;16600;47.444;8.334;2023-11-18T14:25:32;4.30;;;3.90;;
29688;SDS011;16600;47.444;8.334;2023-11-18T14:28:02;5.53;;;4.22;;
29688;SDS011;16600;47.444;8.334;2023-11-18T14:30:28;3.75;;;3.45;;
29688;SDS011;16600;47.444;8.334;2023-11-18T14:32:57;5.47;;;3.78;;
29688;SDS011;16600;47.444;8.334;2023-11-18T14:35:23;6.15;;;4.13;;
29688;SDS011;16600;47.444;8.334;2023-11-18T14:37:49;4.32;;;3.55;;
29688;SDS011;16600;47.444;8.334;2023-11-18T14:40:15;3.90;;;3.17;;
29688;SDS011;16600;47.444;8.334;2023-11-18T14:45:08;3.33;;;3.03;;
29688;SDS011;16600;47.444;8.334;2023-11-18T14:47:38;4.82;;;2.75;;
29688;SDS011;16600;47.444;8.334;2023-11-18T14:50:05;3.58;;;2.70;;
29688;SDS011;16600;47.444;8.334;2023-11-18T14:52:41;5.05;;;3.03;;
29688;SDS011;16600;47.444;8.334;2023-11-18T14:55:11;3.83;;;2.88;;
29688;SDS011;16600;47.444;8.334;2023-11-18T14:57:43;5.05;;;2.55;;
29688;SDS011;16600;47.444;8.334;2023-11-18T15:00:16;6.70;;;3.42;;
29688;SDS011;16600;47.444;8.334;2023-11-18T15:02:51;7.45;;;3.28;;
29688;SDS011;16600;47.444;8.334;2023-11-18T15:05:21;2.80;;;2.60;;
29688;SDS011;16600;47.444;8.334;2023-11-18T15:07:48;4.45;;;3.15;;
29688;SDS011;16600;47.444;8.334;2023-11-18T15:10:19;10.90;;;4.80;;
29688;SDS011;16600;47.444;8.334;2023-11-18T15:12:51;6.60;;;5.10;;
29688;SDS011;16600;47.444;8.334;2023-11-18T15:15:22;6.03;;;4.25;;
29688;SDS011;16600;47.444;8.334;2023-11-18T15:17:57;5.35;;;3.22;;
29688;SDS011;16600;47.444;8.334;2023-11-18T15:20:24;7.25;;;3.53;;
29688;SDS011;16600;47.444;8.334;2023-11-18T15:22:53;4.43;;;3.70;;
29688;SDS011;16600;47.444;8.334;2023-11-18T15:25:19;6.00;;;4.15;;